sensor_id;sensor_type;location;lat;lon;timestamp;P1;durP1;ratioP1;P2;durP2;ratioP2
3589;SDS011;1809;48.470;9.226;2023-11-21T00:00:48;2.20;;;0.90;;
3589;SDS011;1809;48.470;9.226;2023-11-21T00:03:13;0.70;;;0.63;;
3589;SDS011;1809;48.470;9.226;2023-11-21T00:05:40;5.03;;;0.90;;
3589;SDS011;1809;48.470;9.226;2023-11-21T00:08:06;1.10;;;1.00;;
3589;SDS011;1809;48.470;9.226;2023-11-21T00:10:32;3.03;;;0.77;;
3589;SDS011;1809;48.470;9.226;2023-11-21T00:12:58;1.10;;;0.90;;
3589;SDS011;1809;48.470;9.226;2023-11-21T00:15:23;1.83;;;1.00;;
3589;SDS011;1809;48.470;9.226;2023-11-21T00:17:48;1.23;;;0.90;;
3589;SDS011;1809;48.470;9.226;2023-11-21T00:20:14;0.83;;;0.83;;
3589;SDS011;1809;48.470;9.226;2023-11-21T00:22:40;1.90;;;0.90;;
3589;SDS011;1809;48.470;9.226;2023-11-21T00:25:05;1.77;;;0.87;;
3589;SDS011;1809;48.470;9.226;2023-11-21T00:27:33;1.60;;;0.93;;
3589;SDS011;1809;48.470;9.226;2023-11-21T00:30:00;2.20;;;0.60;;
3589;SDS011;1809;48.470;9.226;2023-11-21T00:32:25;2.63;;;0.70;;
3589;SDS011;1809;48.470;9.226;2023-11-21T00:34:50;2.23;;;0.67;;
3589;SDS011;1809;48.470;9.226;2023-11-21T00:37:16;1.33;;;0.90;;
3589;SDS011;1809;48.470;9.226;2023-11-21T00:39:41;1.17;;;0.53;;
3589;SDS011;1809;48.470;9.226;2023-11-21T00:42:07;1.93;;;0.60;;
3589;SDS011;1809;48.470;9.226;2023-11-21T00:44:33;5.20;;;0.87;;
3589;SDS011;1809;48.470;9.226;2023-11-21T00:46:59;1.97;;;0.80;;
3589;SDS011;1809;48.470;9.226;2023-11-21T00:49:24;2.10;;;0.60;;
3589;SDS011;1809;48.470;9.226;2023-11-21T00:51:50;4.50;;;0.80;;
3589;SDS011;1809;48.470;9.226;2023-11-21T00:54:15;1.80;;;0.60;;
3589;SDS011;1809;48.470;9.226;2023-11-21T00:56:42;1.80;;;0.70;;
3589;SDS011;1809;48.470;9.226;2023-11-21T00:59:08;1.93;;;0.70;;
3589;SDS011;1809;48.470;9.226;2023-11-21T01:01:33;1.43;;;0.63;;
3589;SDS011;1809;48.470;9.226;2023-11-21T01:03:58;0.80;;;0.70;;
3589;SDS011;1809;48.470;9.226;2023-11-21T01:06:23;1.53;;;0.63;;
3589;SDS011;1809;48.470;9.226;2023-11-21T01:08:49;1.23;;;1.10;;
3589;SDS011;1809;48.470;9.226;2023-11-21T01:11:14;1.07;;;0.50;;
3589;SDS011;1809;48.470;9.226;2023-11-21T01:13:40;4.10;;;0.60;;
3589;SDS011;1809;48.470;9.226;2023-11-21T01:16:06;0.50;;;0.50;;
3589;SDS011;1809;48.470;9.226;2023-11-21T01:18:32;1.87;;;0.70;;
3589;SDS011;1809;48.470;9.226;2023-11-21T01:20:58;1.23;;;0.73;;
3589;SDS011;1809;48.470;9.226;2023-11-21T01:23:25;2.03;;;0.60;;
3589;SDS011;1809;48.470;9.226;2023-11-21T01:25:51;0.60;;;0.60;;
3589;SDS011;1809;48.470;9.226;2023-11-21T01:28:17;1.10;;;0.70;;
3589;SDS011;1809;48.470;9.226;2023-11-21T01:30:42;0.60;;;0.50;;
3589;SDS011;1809;48.470;9.226;2023-11-21T01:33:09;0.60;;;0.60;;
3589;SDS011;1809;48.470;9.226;2023-11-21T01:35:35;1.50;;;0.50;;
3589;SDS011;1809;48.470;9.226;2023-11-21T01:38:01;1.23;;;0.50;;
3589;SDS011;1809;48.470;9.226;2023-11-21T01:40:26;1.47;;;0.50;;
3589;SDS011;1809;48.470;9.226;2023-11-21T01:42:52;0.50;;;0.50;;
3589;SDS011;1809;48.470;9.226;2023-11-21T01:45:18;2.30;;;0.50;;
3589;SDS011;1809;48.470;9.226;2023-11-21T01:47:44;1.10;;;0.50;;
3589;SDS011;1809;48.470;9.226;2023-11-21T01:50:10;1.40;;;0.63;;
3589;SDS011;1809;48.470;9.226;2023-11-21T01:52:39;0.80;;;0.63;;
3589;SDS011;1809;48.470;9.226;2023-11-21T01:55:06;0.77;;;0.50;;
3589;SDS011;1809;48.470;9.226;2023-11-21T01:57:33;0.50;;;0.50;;
3589;SDS011;1809;48.470;9.226;2023-11-21T01:59:59;0.40;;;0.40;;
3589;SDS011;1809;48.470;9.226;2023-11-21T02:02:40;0.93;;;0.93;;
3589;SDS011;1809;48.470;9.226;2023-11-21T02:05:06;0.70;;;0.70;;
3589;SDS011;1809;48.470;9.226;2023-11-21T02:07:33;3.27;;;0.80;;
3589;SDS011;1809;48.470;9.226;2023-11-21T02:10:00;0.50;;;0.50;;
3589;SDS011;1809;48.470;9.226;2023-11-21T02:12:25;0.97;;;0.40;;
3589;SDS011;1809;48.470;9.226;2023-11-21T02:14:51;1.73;;;0.60;;
3589;SDS011;1809;48.470;9.226;2023-11-21T02:17:17;0.50;;;0.50;;
3589;SDS011;1809;48.470;9.226;2023-11-21T02:19:43;0.60;;;0.60;;
3589;SDS011;1809;48.470;9.226;2023-11-21T02:22:09;2.10;;;0.63;;
3589;SDS011;1809;48.470;9.226;2023-11-21T02:24:37;0.60;;;0.50;;
3589;SDS011;1809;48.470;9.226;2023-11-21T02:27:02;3.23;;;0.63;;
3589;SDS011;1809;48.470;9.226;2023-11-21T02:29:27;0.53;;;0.50;;
3589;SDS011;1809;48.470;9.226;2023-11-21T02:31:53;0.70;;;0.70;;
3589;SDS011;1809;48.470;9.226;2023-11-21T02:34:20;1.10;;;0.60;;
3589;SDS011;1809;48.470;9.226;2023-11-21T02:36:46;1.83;;;0.60;;
3589;SDS011;1809;48.470;9.226;2023-11-21T02:39:14;1.03;;;0.50;;
3589;SDS011;1809;48.470;9.226;2023-11-21T02:41:41;0.50;;;0.50;;
3589;SDS011;1809;48.470;9.226;2023-11-21T02:44:07;0.60;;;0.50;;
3589;SDS011;1809;48.470;9.226;2023-11-21T02:46:33;2.83;;;0.60;;
3589;SDS011;1809;48.470;9.226;2023-11-21T02:49:05;0.90;;;0.50;;
3589;SDS011;1809;48.470;9.226;2023-11-21T02:51:35;0.40;;;0.40;;
3589;SDS011;1809;48.470;9.226;2023-11-21T02:54:01;0.50;;;0.50;;
3589;SDS011;1809;48.470;9.226;2023-11-21T02:56:31;0.60;;;0.60;;
3589;SDS011;1809;48.470;9.226;2023-11-21T02:58:58;1.10;;;0.50;;
3589;SDS011;1809;48.470;9.226;2023-11-21T03:01:25;1.53;;;0.40;;
3589;SDS011;1809;48.470;9.226;2023-11-21T03:03:50;0.50;;;0.50;;
3589;SDS011;1809;48.470;9.226;2023-11-21T03:06:17;0.50;;;0.50;;
3589;SDS011;1809;48.470;9.226;2023-11-21T03:08:45;0.80;;;0.53;;
3589;SDS011;1809;48.470;9.226;2023-11-21T03:11:11;0.60;;;0.60;;
3589;SDS011;1809;48.470;9.226;2023-11-21T03:13:38;0.80;;;0.60;;
3589;SDS011;1809;48.470;9.226;2023-11-21T03:16:04;0.40;;;0.40;;
3589;SDS011;1809;48.470;9.226;2023-11-21T03:18:31;0.50;;;0.50;;
3589;SDS011;1809;48.470;9.226;2023-11-21T03:20:57;0.40;;;0.40;;
3589;SDS011;1809;48.470;9.226;2023-11-21T03:23:22;0.50;;;0.50;;
3589;SDS011;1809;48.470;9.226;2023-11-21T03:25:48;0.43;;;0.40;;
3589;SDS011;1809;48.470;9.226;2023-11-21T03:28:13;0.70;;;0.50;;
3589;SDS011;1809;48.470;9.226;2023-11-21T03:30:39;0.50;;;0.50;;
3589;SDS011;1809;48.470;9.226;2023-11-21T03:33:04;0.40;;;0.40;;
3589;SDS011;1809;48.470;9.226;2023-11-21T03:35:29;0.60;;;0.50;;
3589;SDS011;1809;48.470;9.226;2023-11-21T03:37:55;1.63;;;0.47;;
3589;SDS011;1809;48.470;9.226;2023-11-21T03:40:21;0.40;;;0.40;;
3589;SDS011;1809;48.470;9.226;2023-11-21T03:42:46;0.40;;;0.40;;
3589;SDS011;1809;48.470;9.226;2023-11-21T03:45:12;0.40;;;0.40;;
3589;SDS011;1809;48.470;9.226;2023-11-21T03:47:39;0.80;;;0.40;;
3589;SDS011;1809;48.470;9.226;2023-11-21T03:50:05;3.07;;;0.40;;
3589;SDS011;1809;48.470;9.226;2023-11-21T03:52:31;0.53;;;0.40;;
3589;SDS011;1809;48.470;9.226;2023-11-21T03:54:57;0.53;;;0.40;;
3589;SDS011;1809;48.470;9.226;2023-11-21T03:57:22;0.40;;;0.40;;
3589;SDS011;1809;48.470;9.226;2023-11-21T03:59:47;3.43;;;0.50;;
3589;SDS011;1809;48.470;9.226;2023-11-21T04:02:12;1.30;;;0.50;;
3589;SDS011;1809;48.470;9.226;2023-11-21T04:04:38;0.47;;;0.47;;
3589;SDS011;1809;48.470;9.226;2023-11-21T04:07:04;2.97;;;0.70;;
3589;SDS011;1809;48.470;9.226;2023-11-21T04:09:29;1.40;;;0.50;;
3589;SDS011;1809;48.470;9.226;2023-11-21T04:11:55;5.20;;;1.50;;
3589;SDS011;1809;48.470;9.226;2023-11-21T04:14:20;0.50;;;0.50;;
3589;SDS011;1809;48.470;9.226;2023-11-21T04:16:46;2.70;;;0.50;;
3589;SDS011;1809;48.470;9.226;2023-11-21T04:19:11;1.70;;;0.50;;
3589;SDS011;1809;48.470;9.226;2023-11-21T04:21:39;0.70;;;0.60;;
3589;SDS011;1809;48.470;9.226;2023-11-21T04:24:05;0.60;;;0.60;;
3589;SDS011;1809;48.470;9.226;2023-11-21T04:26:31;0.63;;;0.57;;
3589;SDS011;1809;48.470;9.226;2023-11-21T04:28:57;4.10;;;0.60;;
3589;SDS011;1809;48.470;9.226;2023-11-21T04:31:22;0.80;;;0.60;;
3589;SDS011;1809;48.470;9.226;2023-11-21T04:33:47;1.27;;;0.67;;
3589;SDS011;1809;48.470;9.226;2023-11-21T04:36:13;0.80;;;0.70;;
3589;SDS011;1809;48.470;9.226;2023-11-21T04:38:38;0.80;;;0.80;;
3589;SDS011;1809;48.470;9.226;2023-11-21T04:41:03;0.60;;;0.60;;
3589;SDS011;1809;48.470;9.226;2023-11-21T04:43:29;0.70;;;0.70;;
3589;SDS011;1809;48.470;9.226;2023-11-21T04:45:54;0.83;;;0.70;;
3589;SDS011;1809;48.470;9.226;2023-11-21T04:48:20;0.70;;;0.60;;
3589;SDS011;1809;48.470;9.226;2023-11-21T04:50:45;0.63;;;0.63;;
3589;SDS011;1809;48.470;9.226;2023-11-21T04:53:10;0.70;;;0.57;;
3589;SDS011;1809;48.470;9.226;2023-11-21T04:55:38;1.90;;;0.60;;
3589;SDS011;1809;48.470;9.226;2023-11-21T04:58:04;0.83;;;0.70;;
3589;SDS011;1809;48.470;9.226;2023-11-21T05:00:29;0.83;;;0.60;;
3589;SDS011;1809;48.470;9.226;2023-11-21T05:02:55;0.57;;;0.57;;
3589;SDS011;1809;48.470;9.226;2023-11-21T05:05:20;1.20;;;0.60;;
3589;SDS011;1809;48.470;9.226;2023-11-21T05:07:45;0.97;;;0.97;;
3589;SDS011;1809;48.470;9.226;2023-11-21T05:10:11;1.23;;;0.90;;
3589;SDS011;1809;48.470;9.226;2023-11-21T05:12:37;3.40;;;0.90;;
3589;SDS011;1809;48.470;9.226;2023-11-21T05:15:06;0.50;;;0.50;;
3589;SDS011;1809;48.470;9.226;2023-11-21T05:17:39;0.93;;;0.70;;
3589;SDS011;1809;48.470;9.226;2023-11-21T05:20:07;2.40;;;0.63;;
3589;SDS011;1809;48.470;9.226;2023-11-21T05:22:34;0.73;;;0.60;;
3589;SDS011;1809;48.470;9.226;2023-11-21T05:25:01;1.47;;;0.60;;
3589;SDS011;1809;48.470;9.226;2023-11-21T05:27:28;1.27;;;0.77;;
3589;SDS011;1809;48.470;9.226;2023-11-21T05:29:56;0.70;;;0.67;;
3589;SDS011;1809;48.470;9.226;2023-11-21T05:32:22;2.50;;;0.80;;
3589;SDS011;1809;48.470;9.226;2023-11-21T05:34:51;1.10;;;0.80;;
3589;SDS011;1809;48.470;9.226;2023-11-21T05:37:16;3.03;;;0.80;;
3589;SDS011;1809;48.470;9.226;2023-11-21T05:39:42;1.07;;;0.90;;
3589;SDS011;1809;48.470;9.226;2023-11-21T05:42:08;1.93;;;1.20;;
3589;SDS011;1809;48.470;9.226;2023-11-21T05:44:35;1.53;;;1.43;;
3589;SDS011;1809;48.470;9.226;2023-11-21T05:47:01;1.90;;;1.00;;
3589;SDS011;1809;48.470;9.226;2023-11-21T05:49:26;0.90;;;0.90;;
3589;SDS011;1809;48.470;9.226;2023-11-21T05:51:52;1.03;;;0.80;;
3589;SDS011;1809;48.470;9.226;2023-11-21T05:54:19;1.70;;;1.30;;
3589;SDS011;1809;48.470;9.226;2023-11-21T05:56:44;4.00;;;1.47;;
3589;SDS011;1809;48.470;9.226;2023-11-21T05:59:10;2.03;;;1.57;;
3589;SDS011;1809;48.470;9.226;2023-11-21T06:01:35;1.63;;;1.53;;
3589;SDS011;1809;48.470;9.226;2023-11-21T06:04:03;1.73;;;1.63;;
3589;SDS011;1809;48.470;9.226;2023-11-21T06:06:29;6.00;;;5.40;;
3589;SDS011;1809;48.470;9.226;2023-11-21T06:08:56;3.47;;;2.33;;
3589;SDS011;1809;48.470;9.226;2023-11-21T06:11:21;3.60;;;2.27;;
3589;SDS011;1809;48.470;9.226;2023-11-21T06:13:47;3.13;;;2.30;;
3589;SDS011;1809;48.470;9.226;2023-11-21T06:16:13;3.83;;;2.10;;
3589;SDS011;1809;48.470;9.226;2023-11-21T06:18:41;2.50;;;2.30;;
3589;SDS011;1809;48.470;9.226;2023-11-21T06:21:09;7.10;;;2.90;;
3589;SDS011;1809;48.470;9.226;2023-11-21T06:23:34;4.20;;;2.63;;
3589;SDS011;1809;48.470;9.226;2023-11-21T06:26:00;2.93;;;2.43;;
3589;SDS011;1809;48.470;9.226;2023-11-21T06:28:25;2.40;;;2.20;;
3589;SDS011;1809;48.470;9.226;2023-11-21T06:30:50;5.47;;;2.57;;
3589;SDS011;1809;48.470;9.226;2023-11-21T06:33:15;8.00;;;3.80;;
3589;SDS011;1809;48.470;9.226;2023-11-21T06:35:41;6.00;;;3.50;;
3589;SDS011;1809;48.470;9.226;2023-11-21T06:38:06;7.90;;;4.20;;
3589;SDS011;1809;48.470;9.226;2023-11-21T06:40:32;4.20;;;3.53;;
3589;SDS011;1809;48.470;9.226;2023-11-21T06:42:58;5.27;;;4.37;;
3589;SDS011;1809;48.470;9.226;2023-11-21T06:45:24;4.30;;;3.10;;
3589;SDS011;1809;48.470;9.226;2023-11-21T06:47:49;3.17;;;2.87;;
3589;SDS011;1809;48.470;9.226;2023-11-21T06:50:14;2.30;;;2.10;;
3589;SDS011;1809;48.470;9.226;2023-11-21T06:52:40;2.60;;;2.40;;
3589;SDS011;1809;48.470;9.226;2023-11-21T06:55:05;2.27;;;2.17;;
3589;SDS011;1809;48.470;9.226;2023-11-21T06:57:33;4.40;;;2.20;;
3589;SDS011;1809;48.470;9.226;2023-11-21T06:59:58;2.63;;;2.23;;
3589;SDS011;1809;48.470;9.226;2023-11-21T07:02:24;2.90;;;2.70;;
3589;SDS011;1809;48.470;9.226;2023-11-21T07:04:49;4.07;;;2.17;;
3589;SDS011;1809;48.470;9.226;2023-11-21T07:07:15;2.43;;;2.23;;
3589;SDS011;1809;48.470;9.226;2023-11-21T07:09:40;3.10;;;2.77;;
3589;SDS011;1809;48.470;9.226;2023-11-21T07:12:06;3.50;;;2.40;;
3589;SDS011;1809;48.470;9.226;2023-11-21T07:14:33;2.23;;;2.13;;
3589;SDS011;1809;48.470;9.226;2023-11-21T07:16:59;2.40;;;2.20;;
3589;SDS011;1809;48.470;9.226;2023-11-21T07:19:24;2.30;;;1.60;;
3589;SDS011;1809;48.470;9.226;2023-11-21T07:21:50;3.17;;;1.30;;
3589;SDS011;1809;48.470;9.226;2023-11-21T07:24:18;0.80;;;0.80;;
3589;SDS011;1809;48.470;9.226;2023-11-21T07:26:43;0.60;;;0.60;;
3589;SDS011;1809;48.470;9.226;2023-11-21T07:29:09;2.10;;;0.80;;
3589;SDS011;1809;48.470;9.226;2023-11-21T07:31:34;1.50;;;1.40;;
3589;SDS011;1809;48.470;9.226;2023-11-21T07:33:59;3.03;;;2.30;;
3589;SDS011;1809;48.470;9.226;2023-11-21T07:36:25;1.20;;;1.07;;
3589;SDS011;1809;48.470;9.226;2023-11-21T07:38:51;1.37;;;1.27;;
3589;SDS011;1809;48.470;9.226;2023-11-21T07:41:17;2.47;;;1.67;;
3589;SDS011;1809;48.470;9.226;2023-11-21T07:43:43;1.70;;;1.60;;
3589;SDS011;1809;48.470;9.226;2023-11-21T07:46:09;1.83;;;1.00;;
3589;SDS011;1809;48.470;9.226;2023-11-21T07:48:35;1.37;;;1.10;;
3589;SDS011;1809;48.470;9.226;2023-11-21T07:51:01;1.40;;;1.30;;
3589;SDS011;1809;48.470;9.226;2023-11-21T07:53:28;4.27;;;1.40;;
3589;SDS011;1809;48.470;9.226;2023-11-21T07:55:55;3.00;;;1.43;;
3589;SDS011;1809;48.470;9.226;2023-11-21T07:58:23;2.20;;;1.53;;
3589;SDS011;1809;48.470;9.226;2023-11-21T08:00:51;1.73;;;1.63;;
3589;SDS011;1809;48.470;9.226;2023-11-21T08:03:17;1.60;;;1.50;;
3589;SDS011;1809;48.470;9.226;2023-11-21T08:05:42;3.60;;;1.10;;
3589;SDS011;1809;48.470;9.226;2023-11-21T08:08:08;1.50;;;1.40;;
3589;SDS011;1809;48.470;9.226;2023-11-21T08:10:33;2.90;;;1.80;;
3589;SDS011;1809;48.470;9.226;2023-11-21T08:12:59;1.20;;;1.10;;
3589;SDS011;1809;48.470;9.226;2023-11-21T08:15:24;0.77;;;0.70;;
3589;SDS011;1809;48.470;9.226;2023-11-21T08:17:50;0.80;;;0.80;;
3589;SDS011;1809;48.470;9.226;2023-11-21T08:20:15;5.13;;;0.90;;
3589;SDS011;1809;48.470;9.226;2023-11-21T08:22:43;1.63;;;0.93;;
3589;SDS011;1809;48.470;9.226;2023-11-21T08:25:09;0.90;;;0.90;;
3589;SDS011;1809;48.470;9.226;2023-11-21T08:27:35;0.90;;;0.90;;
3589;SDS011;1809;48.470;9.226;2023-11-21T08:30:01;0.60;;;0.60;;
3589;SDS011;1809;48.470;9.226;2023-11-21T08:32:28;0.80;;;0.80;;
3589;SDS011;1809;48.470;9.226;2023-11-21T08:34:55;1.10;;;0.73;;
3589;SDS011;1809;48.470;9.226;2023-11-21T08:37:20;0.90;;;0.90;;
3589;SDS011;1809;48.470;9.226;2023-11-21T08:39:46;0.50;;;0.50;;
3589;SDS011;1809;48.470;9.226;2023-11-21T08:42:13;0.77;;;0.77;;
3589;SDS011;1809;48.470;9.226;2023-11-21T08:44:39;0.83;;;0.73;;
3589;SDS011;1809;48.470;9.226;2023-11-21T08:47:05;4.70;;;2.60;;
3589;SDS011;1809;48.470;9.226;2023-11-21T08:49:30;3.47;;;0.80;;
3589;SDS011;1809;48.470;9.226;2023-11-21T08:51:55;0.60;;;0.60;;
3589;SDS011;1809;48.470;9.226;2023-11-21T08:54:22;0.73;;;0.73;;
3589;SDS011;1809;48.470;9.226;2023-11-21T08:56:48;1.70;;;1.47;;
3589;SDS011;1809;48.470;9.226;2023-11-21T08:59:15;4.50;;;1.87;;
3589;SDS011;1809;48.470;9.226;2023-11-21T09:01:40;10.47;;;4.53;;
3589;SDS011;1809;48.470;9.226;2023-11-21T09:04:06;1.30;;;1.07;;
3589;SDS011;1809;48.470;9.226;2023-11-21T09:06:31;0.70;;;0.70;;
3589;SDS011;1809;48.470;9.226;2023-11-21T09:08:56;0.60;;;0.60;;
3589;SDS011;1809;48.470;9.226;2023-11-21T09:11:22;1.00;;;1.00;;
3589;SDS011;1809;48.470;9.226;2023-11-21T09:13:50;0.90;;;0.90;;
3589;SDS011;1809;48.470;9.226;2023-11-21T09:16:16;0.60;;;0.60;;
3589;SDS011;1809;48.470;9.226;2023-11-21T09:18:41;0.70;;;0.70;;
3589;SDS011;1809;48.470;9.226;2023-11-21T09:21:06;1.23;;;0.80;;
3589;SDS011;1809;48.470;9.226;2023-11-21T09:23:32;1.10;;;0.67;;
3589;SDS011;1809;48.470;9.226;2023-11-21T09:25:57;1.33;;;0.80;;
3589;SDS011;1809;48.470;9.226;2023-11-21T09:28:24;0.60;;;0.60;;
3589;SDS011;1809;48.470;9.226;2023-11-21T09:30:52;0.63;;;0.63;;
3589;SDS011;1809;48.470;9.226;2023-11-21T09:33:18;0.60;;;0.60;;
3589;SDS011;1809;48.470;9.226;2023-11-21T09:35:43;1.17;;;0.80;;
3589;SDS011;1809;48.470;9.226;2023-11-21T09:38:09;0.90;;;0.90;;
3589;SDS011;1809;48.470;9.226;2023-11-21T09:40:35;0.73;;;0.73;;
3589;SDS011;1809;48.470;9.226;2023-11-21T09:43:03;0.80;;;0.80;;
3589;SDS011;1809;48.470;9.226;2023-11-21T09:48:58;2.30;;;1.10;;
3589;SDS011;1809;48.470;9.226;2023-11-21T09:51:26;1.07;;;1.07;;
3589;SDS011;1809;48.470;9.226;2023-11-21T09:53:55;0.70;;;0.70;;
3589;SDS011;1809;48.470;9.226;2023-11-21T09:56:24;1.00;;;0.93;;
3589;SDS011;1809;48.470;9.226;2023-11-21T09:58:52;0.97;;;0.87;;
3589;SDS011;1809;48.470;9.226;2023-11-21T10:01:18;1.17;;;0.90;;
3589;SDS011;1809;48.470;9.226;2023-11-21T10:03:45;0.90;;;0.90;;
3589;SDS011;1809;48.470;9.226;2023-11-21T10:06:12;0.90;;;0.90;;
3589;SDS011;1809;48.470;9.226;2023-11-21T10:08:39;0.80;;;0.80;;
3589;SDS011;1809;48.470;9.226;2023-11-21T10:11:06;1.63;;;0.70;;
3589;SDS011;1809;48.470;9.226;2023-11-21T10:13:36;1.73;;;0.90;;
3589;SDS011;1809;48.470;9.226;2023-11-21T10:16:02;0.70;;;0.70;;
3589;SDS011;1809;48.470;9.226;2023-11-21T10:18:30;0.70;;;0.70;;
3589;SDS011;1809;48.470;9.226;2023-11-21T10:20:59;0.70;;;0.70;;
3589;SDS011;1809;48.470;9.226;2023-11-21T10:23:24;4.30;;;1.97;;
3589;SDS011;1809;48.470;9.226;2023-11-21T10:25:51;2.20;;;1.73;;
3589;SDS011;1809;48.470;9.226;2023-11-21T10:28:17;1.50;;;1.40;;
3589;SDS011;1809;48.470;9.226;2023-11-21T10:30:42;1.60;;;1.40;;
3589;SDS011;1809;48.470;9.226;2023-11-21T10:33:09;3.23;;;2.93;;
3589;SDS011;1809;48.470;9.226;2023-11-21T10:35:39;1.33;;;0.80;;
3589;SDS011;1809;48.470;9.226;2023-11-21T10:38:07;3.53;;;2.00;;
3589;SDS011;1809;48.470;9.226;2023-11-21T10:40:38;4.60;;;3.80;;
3589;SDS011;1809;48.470;9.226;2023-11-21T10:43:07;3.97;;;3.03;;
3589;SDS011;1809;48.470;9.226;2023-11-21T10:45:39;4.03;;;3.00;;
3589;SDS011;1809;48.470;9.226;2023-11-21T10:48:05;3.20;;;2.53;;
3589;SDS011;1809;48.470;9.226;2023-11-21T10:50:33;3.03;;;2.83;;
3589;SDS011;1809;48.470;9.226;2023-11-21T10:53:02;2.00;;;1.90;;
3589;SDS011;1809;48.470;9.226;2023-11-21T10:55:29;2.00;;;1.90;;
3589;SDS011;1809;48.470;9.226;2023-11-21T10:57:57;1.67;;;1.57;;
3589;SDS011;1809;48.470;9.226;2023-11-21T11:00:23;1.77;;;1.67;;
3589;SDS011;1809;48.470;9.226;2023-11-21T11:02:53;2.10;;;1.30;;
3589;SDS011;1809;48.470;9.226;2023-11-21T11:05:23;2.93;;;1.43;;
3589;SDS011;1809;48.470;9.226;2023-11-21T11:07:58;1.47;;;1.10;;
3589;SDS011;1809;48.470;9.226;2023-11-21T11:10:28;1.60;;;1.50;;
3589;SDS011;1809;48.470;9.226;2023-11-21T11:12:56;3.50;;;2.00;;
3589;SDS011;1809;48.470;9.226;2023-11-21T11:15:23;1.17;;;1.07;;
3589;SDS011;1809;48.470;9.226;2023-11-21T11:17:49;1.73;;;1.23;;
3589;SDS011;1809;48.470;9.226;2023-11-21T11:20:15;1.40;;;0.80;;
3589;SDS011;1809;48.470;9.226;2023-11-21T11:23:08;1.07;;;0.90;;
3589;SDS011;1809;48.470;9.226;2023-11-21T11:31:04;1.03;;;1.03;;
3589;SDS011;1809;48.470;9.226;2023-11-21T11:33:57;0.87;;;0.87;;
3589;SDS011;1809;48.470;9.226;2023-11-21T11:36:36;2.20;;;2.10;;
3589;SDS011;1809;48.470;9.226;2023-11-21T11:41:53;1.10;;;1.10;;
3589;SDS011;1809;48.470;9.226;2023-11-21T11:44:46;1.00;;;1.00;;
3589;SDS011;1809;48.470;9.226;2023-11-21T11:47:35;1.53;;;0.80;;
3589;SDS011;1809;48.470;9.226;2023-11-21T11:52:47;1.50;;;1.20;;
3589;SDS011;1809;48.470;9.226;2023-11-21T11:55:18;1.00;;;1.00;;
3589;SDS011;1809;48.470;9.226;2023-11-21T11:57:49;0.80;;;0.80;;
3589;SDS011;1809;48.470;9.226;2023-11-21T12:00:20;1.90;;;0.83;;
3589;SDS011;1809;48.470;9.226;2023-11-21T12:02:57;0.80;;;0.80;;
3589;SDS011;1809;48.470;9.226;2023-11-21T12:05:24;2.13;;;1.07;;
3589;SDS011;1809;48.470;9.226;2023-11-21T12:07:56;1.70;;;1.60;;
3589;SDS011;1809;48.470;9.226;2023-11-21T12:10:32;1.40;;;1.07;;
3589;SDS011;1809;48.470;9.226;2023-11-21T12:13:02;2.00;;;1.40;;
3589;SDS011;1809;48.470;9.226;2023-11-21T12:15:32;2.20;;;1.00;;
3589;SDS011;1809;48.470;9.226;2023-11-21T12:18:00;1.53;;;1.43;;
3589;SDS011;1809;48.470;9.226;2023-11-21T12:20:26;22.77;;;5.70;;
3589;SDS011;1809;48.470;9.226;2023-11-21T12:25:20;1.30;;;1.10;;
3589;SDS011;1809;48.470;9.226;2023-11-21T12:27:51;3.60;;;1.37;;
3589;SDS011;1809;48.470;9.226;2023-11-21T12:30:18;1.97;;;1.30;;
3589;SDS011;1809;48.470;9.226;2023-11-21T12:32:48;0.83;;;0.83;;
3589;SDS011;1809;48.470;9.226;2023-11-21T12:35:16;2.60;;;2.50;;
3589;SDS011;1809;48.470;9.226;2023-11-21T12:37:44;1.30;;;1.27;;
3589;SDS011;1809;48.470;9.226;2023-11-21T12:40:12;2.20;;;1.50;;
3589;SDS011;1809;48.470;9.226;2023-11-21T12:42:40;1.50;;;1.40;;
3589;SDS011;1809;48.470;9.226;2023-11-21T12:47:42;1.30;;;1.20;;
3589;SDS011;1809;48.470;9.226;2023-11-21T12:50:09;1.37;;;1.30;;
3589;SDS011;1809;48.470;9.226;2023-11-21T12:52:40;2.23;;;1.80;;
3589;SDS011;1809;48.470;9.226;2023-11-21T12:57:51;1.37;;;0.90;;
3589;SDS011;1809;48.470;9.226;2023-11-21T13:00:29;1.37;;;1.37;;
3589;SDS011;1809;48.470;9.226;2023-11-21T13:02:58;4.70;;;4.30;;
3589;SDS011;1809;48.470;9.226;2023-11-21T13:05:27;2.60;;;1.90;;
3589;SDS011;1809;48.470;9.226;2023-11-21T13:07:58;1.10;;;1.10;;
3589;SDS011;1809;48.470;9.226;2023-11-21T13:10:27;1.07;;;1.00;;
3589;SDS011;1809;48.470;9.226;2023-11-21T13:12:56;0.80;;;0.80;;
3589;SDS011;1809;48.470;9.226;2023-11-21T13:15:28;1.00;;;1.00;;
3589;SDS011;1809;48.470;9.226;2023-11-21T13:17:56;2.17;;;2.07;;
3589;SDS011;1809;48.470;9.226;2023-11-21T13:20:22;1.53;;;1.43;;
3589;SDS011;1809;48.470;9.226;2023-11-21T13:22:50;0.80;;;0.80;;
3589;SDS011;1809;48.470;9.226;2023-11-21T13:25:19;1.00;;;1.00;;
3589;SDS011;1809;48.470;9.226;2023-11-21T13:27:44;2.37;;;2.27;;
3589;SDS011;1809;48.470;9.226;2023-11-21T13:30:11;3.43;;;3.23;;
3589;SDS011;1809;48.470;9.226;2023-11-21T13:32:41;2.70;;;2.60;;
3589;SDS011;1809;48.470;9.226;2023-11-21T13:35:07;2.70;;;2.60;;
3589;SDS011;1809;48.470;9.226;2023-11-21T13:37:36;2.10;;;2.00;;
3589;SDS011;1809;48.470;9.226;2023-11-21T13:40:02;1.87;;;1.70;;
3589;SDS011;1809;48.470;9.226;2023-11-21T13:42:34;1.90;;;1.80;;
3589;SDS011;1809;48.470;9.226;2023-11-21T13:45:00;3.60;;;3.30;;
3589;SDS011;1809;48.470;9.226;2023-11-21T13:47:25;1.57;;;1.47;;
3589;SDS011;1809;48.470;9.226;2023-11-21T13:49:54;2.27;;;2.07;;
3589;SDS011;1809;48.470;9.226;2023-11-21T13:52:19;2.37;;;1.97;;
3589;SDS011;1809;48.470;9.226;2023-11-21T13:54:48;4.17;;;2.90;;
3589;SDS011;1809;48.470;9.226;2023-11-21T13:57:13;3.73;;;1.90;;
3589;SDS011;1809;48.470;9.226;2023-11-21T13:59:39;7.60;;;3.27;;
3589;SDS011;1809;48.470;9.226;2023-11-21T14:02:04;5.20;;;2.57;;
3589;SDS011;1809;48.470;9.226;2023-11-21T14:04:43;4.53;;;3.50;;
3589;SDS011;1809;48.470;9.226;2023-11-21T14:07:14;1.93;;;1.83;;
3589;SDS011;1809;48.470;9.226;2023-11-21T14:09:51;2.77;;;2.47;;
3589;SDS011;1809;48.470;9.226;2023-11-21T14:12:18;3.83;;;3.50;;
3589;SDS011;1809;48.470;9.226;2023-11-21T14:14:43;6.53;;;4.10;;
3589;SDS011;1809;48.470;9.226;2023-11-21T14:17:10;5.43;;;3.40;;
3589;SDS011;1809;48.470;9.226;2023-11-21T14:19:35;4.80;;;4.40;;
3589;SDS011;1809;48.470;9.226;2023-11-21T14:22:05;5.60;;;4.27;;
3589;SDS011;1809;48.470;9.226;2023-11-21T14:24:31;5.17;;;4.50;;
3589;SDS011;1809;48.470;9.226;2023-11-21T14:26:57;3.50;;;3.20;;
3589;SDS011;1809;48.470;9.226;2023-11-21T14:29:22;4.87;;;3.53;;
3589;SDS011;1809;48.470;9.226;2023-11-21T14:31:48;9.20;;;4.03;;
3589;SDS011;1809;48.470;9.226;2023-11-21T14:34:16;6.40;;;4.80;;
3589;SDS011;1809;48.470;9.226;2023-11-21T14:36:42;5.40;;;4.50;;
3589;SDS011;1809;48.470;9.226;2023-11-21T14:39:09;7.27;;;4.93;;
3589;SDS011;1809;48.470;9.226;2023-11-21T14:41:45;9.67;;;4.80;;
3589;SDS011;1809;48.470;9.226;2023-11-21T14:44:11;8.80;;;4.53;;
3589;SDS011;1809;48.470;9.226;2023-11-21T14:46:37;4.90;;;4.20;;
3589;SDS011;1809;48.470;9.226;2023-11-21T14:49:04;5.13;;;3.53;;
3589;SDS011;1809;48.470;9.226;2023-11-21T14:51:48;6.23;;;5.53;;
3589;SDS011;1809;48.470;9.226;2023-11-21T14:54:31;8.83;;;5.10;;
3589;SDS011;1809;48.470;9.226;2023-11-21T14:57:05;9.57;;;4.60;;
3589;SDS011;1809;48.470;9.226;2023-11-21T14:59:36;5.07;;;4.47;;
3589;SDS011;1809;48.470;9.226;2023-11-21T15:02:02;4.67;;;4.27;;
3589;SDS011;1809;48.470;9.226;2023-11-21T15:04:40;5.60;;;5.07;;
3589;SDS011;1809;48.470;9.226;2023-11-21T15:07:07;7.90;;;4.90;;
3589;SDS011;1809;48.470;9.226;2023-11-21T15:09:33;5.73;;;5.10;;
3589;SDS011;1809;48.470;9.226;2023-11-21T15:11:58;6.70;;;5.27;;
3589;SDS011;1809;48.470;9.226;2023-11-21T15:14:39;4.93;;;4.30;;
3589;SDS011;1809;48.470;9.226;2023-11-21T15:17:17;5.80;;;4.23;;
3589;SDS011;1809;48.470;9.226;2023-11-21T15:19:52;6.40;;;4.50;;
3589;SDS011;1809;48.470;9.226;2023-11-21T15:22:18;6.03;;;5.27;;
3589;SDS011;1809;48.470;9.226;2023-11-21T15:24:44;16.03;;;7.13;;
3589;SDS011;1809;48.470;9.226;2023-11-21T15:27:12;11.80;;;6.40;;
3589;SDS011;1809;48.470;9.226;2023-11-21T15:29:38;9.90;;;6.43;;
3589;SDS011;1809;48.470;9.226;2023-11-21T15:32:05;5.63;;;5.10;;
3589;SDS011;1809;48.470;9.226;2023-11-21T15:34:32;10.60;;;5.53;;
3589;SDS011;1809;48.470;9.226;2023-11-21T15:36:58;10.47;;;8.50;;